createdAt,value
2023-01-11T00:10:06.033Z,958.01
2023-01-11T00:25:08.358Z,958.15
2023-01-11T00:40:10.898Z,958.36
2023-01-11T00:55:13.203Z,958.32
2023-01-11T01:10:15.772Z,958.22
2023-01-11T01:25:18.177Z,958.24
2023-01-11T01:40:20.513Z,958.16
2023-01-11T01:55:22.877Z,958.13
2023-01-11T02:10:25.208Z,958.02
2023-01-11T02:25:27.699Z,958.07
2023-01-11T02:40:30.074Z,957.97
2023-01-11T02:55:32.456Z,958.02
2023-01-11T03:10:34.881Z,957.9
2023-01-11T03:25:37.244Z,957.97
2023-01-11T03:40:39.553Z,958.07
2023-01-11T03:55:42.032Z,958.06
2023-01-11T04:10:44.374Z,957.96
2023-01-11T04:25:46.690Z,957.92
2023-01-11T04:40:49.062Z,958.03
2023-01-11T04:55:51.409Z,958.14
2023-01-11T05:10:53.740Z,958.12
2023-01-11T05:25:56.244Z,958.29
2023-01-11T05:40:58.751Z,958.54
2023-01-11T05:56:01.417Z,958.52
2023-01-11T06:11:04.044Z,958.65
2023-01-11T06:26:06.834Z,958.94
2023-01-11T06:41:09.388Z,959.3
2023-01-11T06:56:11.759Z,959.28
2023-01-11T07:11:14.166Z,959.22
2023-01-11T07:26:16.682Z,959.46
2023-01-11T07:41:19.350Z,959.7
2023-01-11T07:56:23.496Z,959.98
2023-01-11T08:11:26.166Z,960.11
2023-01-11T08:26:28.790Z,960.08
2023-01-11T08:41:31.197Z,960.15
2023-01-11T08:56:33.709Z,960.11
2023-01-11T09:11:36.081Z,960.13
2023-01-11T09:26:38.639Z,960.19
2023-01-11T09:41:40.996Z,960.34
2023-01-11T09:56:43.267Z,960.67
2023-01-11T10:28:59.854Z,960.88
2023-01-11T10:44:02.270Z,961.02
2023-01-11T10:59:04.700Z,961.12
2023-01-11T11:14:07.133Z,961.28
2023-01-11T11:29:09.554Z,961.42
2023-01-11T11:44:11.897Z,961.64
2023-01-11T11:59:14.359Z,961.62
2023-01-11T12:14:16.716Z,961.71
2023-01-11T12:29:19.176Z,961.89
2023-01-11T12:44:21.484Z,962.12
2023-01-11T12:59:23.979Z,962.43
2023-01-11T13:14:26.330Z,962.64
2023-01-11T13:29:28.625Z,962.93
2023-01-11T13:44:30.939Z,963.27
2023-01-11T13:59:33.504Z,963.46
2023-01-11T14:14:37.369Z,963.78
2023-01-11T14:29:40.069Z,963.87
2023-01-11T14:44:42.392Z,964.01
2023-01-11T14:59:44.663Z,964.38
2023-01-11T15:14:46.980Z,964.64
2023-01-11T15:29:49.347Z,964.86
2023-01-11T15:44:51.684Z,965.03
2023-01-11T15:59:54.066Z,965.15
2023-01-11T16:14:56.360Z,965.4
2023-01-11T16:29:58.708Z,965.56
2023-01-11T16:45:01.112Z,965.84
2023-01-11T17:00:03.397Z,965.93
2023-01-11T17:15:05.748Z,966.05
2023-01-11T17:30:08.033Z,966.22
2023-01-11T17:45:10.288Z,966.34
2023-01-11T18:00:12.617Z,966.47
2023-01-11T18:15:14.913Z,966.58
2023-01-11T18:30:17.327Z,966.83
2023-01-11T18:45:19.698Z,966.84
2023-01-11T19:00:22.057Z,966.91
2023-01-11T19:15:24.352Z,966.82
2023-01-11T19:30:26.711Z,966.92
2023-01-11T19:45:29.138Z,966.88
2023-01-11T20:00:31.478Z,966.79
2023-01-11T20:15:33.908Z,966.85
2023-01-11T20:30:36.313Z,967.08
2023-01-11T20:45:38.769Z,967.23
2023-01-11T21:00:41.078Z,967.21
2023-01-11T21:15:43.462Z,967.29
2023-01-11T21:30:45.838Z,967.36
2023-01-11T21:45:48.144Z,967.37
2023-01-11T22:00:50.492Z,967.58
2023-01-11T22:15:52.928Z,967.56
2023-01-11T22:30:55.235Z,967.84
2023-01-11T22:45:57.628Z,967.9
2023-01-11T23:00:59.985Z,968.17
2023-01-11T23:16:02.338Z,968.21
2023-01-11T23:31:04.653Z,968.28
2023-01-11T23:46:07.043Z,968.6
